Barefoot Bay, Florida
Current Conditions -  °F | °C
As of 12:53 AM on Friday 31 Oct 2014 (Local Time) from KVRB Reporting Station
Few Clouds Few Clouds  
Wind Chill: 66°   Ceiling: Unl
Heat Index: 66°   Visibility: 10mi
Dew Point: 64°   Wind: 3mph
Humidity: 93%   Direction: 250°WSW
Pressure: 29.87"   Gusts: NA
Location:  27.8606°N, 80.5442°W
Report Text: KVRB 310453Z AUTO 25003KT 10SM FEW075 19/18 A2987 RMK AO2 LTG DSNT NW SLP113 T01890178 402830161 PWINO
Loading
Personal Weather Stations






























Interactive Weather Map
Tropical Storm Tracking
New forecast layout! Learn more

10-Day Weather Forecast

Advertisements
Track Severe Weather on mobile